Time,TemperatureF,DewpointF,PressureIn,WindDirection,WindDirectionDegrees,WindSpeedMPH,WindSpeedGustMPH,Humidity,HourlyPrecipIn,Conditions,Clouds,dailyrainin,SoftwareType,DateUTC
2013-02-03 00:00:00,59.0,54.4,30.14,North,354,0.0,0.0,85,0.00,,---,0.00,VWS V13.01,2013-02-03 05:00:00,
2013-02-03 00:02:00,59.1,54.5,30.14,North,354,0.0,0.0,85,0.00,,---,0.00,VWS V13.01,2013-02-03 05:02:00,
2013-02-03 00:03:00,59.1,54.5,30.14,North,354,0.0,0.0,85,0.00,,---,0.00,VWS V13.01,2013-02-03 05:03:00,
2013-02-03 00:04:00,59.2,54.7,30.13,North,354,0.0,0.0,85,0.00,,---,0.00,VWS V13.01,2013-02-03 05:04:00,
2013-02-03 00:09:00,59.2,54.7,30.13,North,354,0.0,0.0,85,0.00,,---,0.00,VWS V13.01,2013-02-03 05:09:00,
2013-02-03 00:14:00,58.9,54.5,30.14,North,354,0.0,0.0,85,0.00,,---,0.00,VWS V13.01,2013-02-03 05:14:00,
2013-02-03 00:19:00,58.8,54.4,30.13,North,354,0.0,0.0,85,0.00,,---,0.00,VWS V13.01,2013-02-03 05:19:00,
2013-02-03 00:24:00,58.8,54.4,30.13,North,354,0.0,0.0,85,0.00,,---,0.00,VWS V13.01,2013-02-03 05:24:00,
2013-02-03 00:29:00,58.7,54.4,30.13,North,354,0.0,0.0,86,0.00,,---,0.00,VWS V13.01,2013-02-03 05:29:00,
2013-02-03 00:34:00,58.4,54.2,30.13,North,354,0.0,0.0,86,0.00,,---,0.00,VWS V13.01,2013-02-03 05:34:00,
2013-02-03 00:39:00,58.4,54.2,30.13,North,354,0.0,0.0,86,0.00,,---,0.00,VWS V13.01,2013-02-03 05:39:00,
2013-02-03 00:44:00,58.4,54.2,30.13,North,354,0.0,0.0,86,0.00,,---,0.00,VWS V13.01,2013-02-03 05:44:00,
2013-02-03 00:49:00,58.3,54.2,30.13,North,354,0.0,0.0,86,0.00,,---,0.00,VWS V13.01,2013-02-03 05:49:00,
2013-02-03 00:54:00,58.4,54.4,30.13,North,354,0.0,0.0,86,0.00,,---,0.00,VWS V13.01,2013-02-03 05:54:00,
2013-02-03 00:59:00,58.3,54.4,30.12,North,354,0.0,0.0,87,0.00,,---,0.00,VWS V13.01,2013-02-03 05:59:00,
2013-02-03 01:04:00,58.1,54.2,30.12,North,354,0.0,0.0,87,0.00,,---,0.00,VWS V13.01,2013-02-03 06:04:00,
2013-02-03 01:09:00,58.1,54.3,30.12,North,354,0.0,0.0,87,0.00,,---,0.00,VWS V13.01,2013-02-03 06:09:00,
2013-02-03 01:14:00,57.8,54.1,30.12,North,354,0.0,0.0,88,0.00,,---,0.00,VWS V13.01,2013-02-03 06:14:00,
2013-02-03 01:19:00,57.8,54.2,30.12,North,354,0.0,0.0,88,0.00,,---,0.00,VWS V13.01,2013-02-03 06:19:00,
2013-02-03 01:24:00,57.8,54.2,30.12,North,354,0.0,0.0,88,0.00,,---,0.00,VWS V13.01,2013-02-03 06:24:00,
2013-02-03 01:29:00,57.7,54.2,30.12,North,354,0.0,0.0,88,0.00,,---,0.00,VWS V13.01,2013-02-03 06:29:00,
2013-02-03 01:34:00,57.8,54.2,30.12,North,354,0.0,0.0,88,0.00,,---,0.00,VWS V13.01,2013-02-03 06:34:00,
2013-02-03 01:39:00,57.5,54.0,30.11,North,354,0.0,0.0,88,0.00,,---,0.00,VWS V13.01,2013-02-03 06:39:00,
2013-02-03 01:44:00,57.5,54.0,30.11,North,354,0.0,0.0,88,0.00,,---,0.00,VWS V13.01,2013-02-03 06:44:00,
2013-02-03 01:49:00,57.5,54.2,30.11,North,354,0.0,0.0,89,0.00,,---,0.00,VWS V13.01,2013-02-03 06:49:00,
2013-02-03 01:54:00,57.5,54.2,30.11,North,354,0.0,0.0,89,0.00,,---,0.00,VWS V13.01,2013-02-03 06:54:00,
2013-02-03 01:59:00,57.6,54.3,30.11,North,354,0.0,0.0,89,0.00,,---,0.00,VWS V13.01,2013-02-03 06:59:00,
2013-02-03 02:04:00,57.6,54.3,30.11,North,354,0.0,0.0,89,0.00,,---,0.00,VWS V13.01,2013-02-03 07:04:00,
2013-02-03 02:09:00,57.5,54.3,30.11,North,354,0.0,0.0,89,0.00,,---,0.00,VWS V13.01,2013-02-03 07:09:00,
2013-02-03 02:14:00,57.4,54.1,30.11,North,354,0.0,0.0,89,0.00,,---,0.00,VWS V13.01,2013-02-03 07:14:00,
2013-02-03 02:19:00,57.4,54.2,30.11,North,354,0.0,0.0,89,0.00,,---,0.00,VWS V13.01,2013-02-03 07:19:00,
2013-02-03 02:24:00,57.1,53.9,30.11,North,354,0.0,0.0,89,0.00,,---,0.00,VWS V13.01,2013-02-03 07:24:00,
2013-02-03 02:29:00,57.2,54.0,30.10,North,354,0.0,0.0,89,0.00,,---,0.00,VWS V13.01,2013-02-03 07:29:00,
2013-02-03 02:34:00,57.1,53.9,30.10,North,354,0.0,0.0,89,0.00,,---,0.00,VWS V13.01,2013-02-03 07:34:00,
2013-02-03 02:40:00,57.1,53.9,30.10,North,354,0.0,0.0,89,0.00,,---,0.00,VWS V13.01,2013-02-03 07:40:00,
2013-02-03 02:45:00,56.9,53.8,30.10,North,354,0.0,0.0,89,0.00,,---,0.00,VWS V13.01,2013-02-03 07:45:00,
2013-02-03 02:50:00,56.8,53.7,30.10,North,354,0.0,0.0,89,0.00,,---,0.00,VWS V13.01,2013-02-03 07:50:00,
2013-02-03 02:55:00,56.7,53.7,30.10,North,354,0.0,0.0,90,0.00,,---,0.00,VWS V13.01,2013-02-03 07:55:00,
2013-02-03 03:00:00,56.7,53.7,30.10,North,354,0.0,0.0,90,0.00,,---,0.00,VWS V13.01,2013-02-03 08:00:00,
2013-02-03 03:05:00,56.7,53.8,30.11,North,354,0.0,0.0,90,0.00,,---,0.00,VWS V13.01,2013-02-03 08:05:00,
2013-02-03 03:10:00,56.4,53.6,30.11,North,354,0.0,0.0,90,0.00,,---,0.00,VWS V13.01,2013-02-03 08:10:00,
2013-02-03 03:15:00,56.6,53.9,30.10,North,354,0.0,0.0,90,0.00,,---,0.00,VWS V13.01,2013-02-03 08:15:00,
2013-02-03 03:20:00,56.4,53.7,30.11,North,354,0.0,0.0,91,0.00,,---,0.00,VWS V13.01,2013-02-03 08:20:00,
2013-02-03 03:25:00,56.4,53.8,30.11,North,354,0.0,0.0,91,0.00,,---,0.00,VWS V13.01,2013-02-03 08:25:00,
2013-02-03 03:30:00,56.4,53.8,30.11,North,354,0.0,0.0,91,0.00,,---,0.00,VWS V13.01,2013-02-03 08:30:00,
2013-02-03 03:35:00,56.3,53.8,30.11,North,354,0.0,0.0,91,0.00,,---,0.00,VWS V13.01,2013-02-03 08:35:00,
2013-02-03 03:40:00,56.4,54.0,30.11,North,354,0.0,0.0,92,0.00,,---,0.00,VWS V13.01,2013-02-03 08:40:00,
2013-02-03 03:45:00,56.4,54.0,30.11,North,354,0.0,0.0,92,0.00,,---,0.00,VWS V13.01,2013-02-03 08:45:00,
2013-02-03 03:50:00,56.2,53.8,30.11,North,354,0.0,0.0,92,0.00,,---,0.00,VWS V13.01,2013-02-03 08:50:00,
2013-02-03 03:55:00,56.3,54.0,30.11,North,354,0.0,0.0,92,0.00,,---,0.00,VWS V13.01,2013-02-03 08:55:00,
2013-02-03 04:00:00,56.2,53.9,30.11,North,354,0.0,0.0,92,0.00,,---,0.00,VWS V13.01,2013-02-03 09:00:00,
2013-02-03 04:05:00,56.3,54.2,30.12,North,354,0.0,0.0,92,0.00,,---,0.00,VWS V13.01,2013-02-03 09:05:00,
2013-02-03 04:10:00,56.4,54.4,30.12,North,354,0.0,0.0,93,0.00,,---,0.00,VWS V13.01,2013-02-03 09:10:00,
2013-02-03 04:15:00,56.7,54.7,30.12,North,354,0.0,0.0,93,0.00,,---,0.00,VWS V13.01,2013-02-03 09:15:00,
2013-02-03 04:20:00,56.8,54.7,30.11,North,354,0.0,0.0,93,0.00,,---,0.00,VWS V13.01,2013-02-03 09:20:00,
2013-02-03 04:25:00,57.0,55.0,30.12,North,354,0.0,0.0,93,0.00,,---,0.00,VWS V13.01,2013-02-03 09:25:00,
2013-02-03 04:30:00,57.1,55.1,30.12,North,354,0.0,0.0,93,0.00,,---,0.00,VWS V13.01,2013-02-03 09:30:00,
2013-02-03 04:35:00,57.2,55.1,30.11,North,354,0.0,0.0,93,0.00,,---,0.00,VWS V13.01,2013-02-03 09:35:00,
2013-02-03 04:40:00,57.2,55.1,30.11,North,354,0.0,0.0,93,0.00,,---,0.00,VWS V13.01,2013-02-03 09:40:00,
2013-02-03 04:45:00,57.7,55.6,30.11,North,354,0.0,0.0,93,0.00,,---,0.00,VWS V13.01,2013-02-03 09:45:00,
2013-02-03 04:50:00,57.5,55.3,30.11,North,354,0.0,0.0,92,0.00,,---,0.00,VWS V13.01,2013-02-03 09:50:00,
2013-02-03 04:55:00,57.4,55.2,30.12,North,354,0.0,0.0,92,0.00,,---,0.00,VWS V13.01,2013-02-03 09:55:00,
2013-02-03 05:00:00,57.4,55.3,30.12,SSW,193,0.0,5.3,93,0.00,,---,0.00,VWS V13.01,2013-02-03 10:00:00,
2013-02-03 05:05:00,57.6,55.5,30.12,SSW,193,0.0,0.0,92,0.00,,---,0.00,VWS V13.01,2013-02-03 10:05:00,
2013-02-03 05:10:00,57.7,55.4,30.12,WNW,294,1.6,3.2,92,0.00,,---,0.00,VWS V13.01,2013-02-03 10:10:00,
2013-02-03 05:15:00,57.6,55.3,30.12,West,266,0.9,0.9,92,0.00,,---,0.00,VWS V13.01,2013-02-03 10:15:00,
2013-02-03 05:20:00,57.7,55.4,30.12,West,271,0.0,0.0,92,0.00,,---,0.00,VWS V13.01,2013-02-03 10:20:00,
2013-02-03 05:25:00,57.9,55.5,30.12,WSW,256,0.0,1.2,92,0.00,,---,0.00,VWS V13.01,2013-02-03 10:25:00,
2013-02-03 05:30:00,57.8,55.4,30.13,NW,315,2.4,2.6,92,0.00,,---,0.00,VWS V13.01,2013-02-03 10:30:00,
2013-02-03 05:35:00,57.7,55.3,30.13,West,259,1.8,2.9,92,0.00,,---,0.00,VWS V13.01,2013-02-03 10:35:00,
2013-02-03 05:40:00,57.8,55.4,30.13,WNW,284,3.4,4.8,92,0.00,,---,0.00,VWS V13.01,2013-02-03 10:40:00,
2013-02-03 05:45:00,57.8,55.5,30.13,WNW,301,0.0,0.0,92,0.00,,---,0.00,VWS V13.01,2013-02-03 10:45:00,
2013-02-03 05:50:00,57.7,55.4,30.13,WNW,300,2.4,3.0,92,0.00,,---,0.00,VWS V13.01,2013-02-03 10:50:00,
2013-02-03 05:55:00,57.4,55.2,30.13,West,270,2.5,3.5,92,0.00,,---,0.00,VWS V13.01,2013-02-03 10:55:00,
2013-02-03 06:00:00,57.3,55.2,30.14,WNW,298,1.7,2.9,92,0.00,,---,0.00,VWS V13.01,2013-02-03 11:00:00,
2013-02-03 06:05:00,57.2,55.1,30.14,WNW,294,0.0,3.9,93,0.00,,---,0.00,VWS V13.01,2013-02-03 11:05:00,
2013-02-03 06:10:00,56.8,54.8,30.14,WSW,257,2.9,5.5,93,0.00,,---,0.00,VWS V13.01,2013-02-03 11:10:00,
2013-02-03 06:15:00,56.8,54.9,30.15,West,281,1.2,4.1,93,0.00,,---,0.00,VWS V13.01,2013-02-03 11:15:00,
2013-02-03 06:20:00,56.9,55.1,30.15,WNW,298,2.1,4.1,94,0.00,,---,0.00,VWS V13.01,2013-02-03 11:20:00,
2013-02-03 06:25:00,56.9,55.2,30.15,West,277,1.0,3.3,94,0.00,,---,0.00,VWS V13.01,2013-02-03 11:25:00,
2013-02-03 06:30:00,56.9,55.2,30.15,West,281,2.8,3.5,94,0.00,,---,0.00,VWS V13.01,2013-02-03 11:30:00,
2013-02-03 06:35:00,57.0,55.3,30.15,West,281,0.0,1.0,94,0.00,,---,0.00,VWS V13.01,2013-02-03 11:35:00,
2013-02-03 06:40:00,56.8,55.3,30.16,WNW,298,2.9,3.0,95,0.00,,---,0.00,VWS V13.01,2013-02-03 11:40:00,
2013-02-03 06:45:00,56.9,55.4,30.16,WNW,287,0.0,0.0,95,0.00,,---,0.00,VWS V13.01,2013-02-03 11:45:00,
2013-02-03 06:50:00,56.7,55.2,30.16,NW,314,3.1,4.5,95,0.00,,---,0.00,VWS V13.01,2013-02-03 11:50:00,
2013-02-03 06:55:00,56.9,55.3,30.16,West,278,1.9,3.2,94,0.00,,---,0.00,VWS V13.01,2013-02-03 11:55:00,
2013-02-03 07:00:00,57.0,55.3,30.17,NW,307,1.0,5.2,94,0.00,,---,0.00,VWS V13.01,2013-02-03 12:00:00,
2013-02-03 07:05:00,57.0,54.9,30.17,NW,316,1.8,4.5,93,0.00,,---,0.00,VWS V13.01,2013-02-03 12:05:00,
2013-02-03 07:10:00,57.3,55.0,30.17,WNW,288,6.8,6.8,92,0.00,,---,0.00,VWS V13.01,2013-02-03 12:10:00,
2013-02-03 07:15:00,57.3,54.8,30.17,WNW,288,2.4,3.9,91,0.00,,---,0.00,VWS V13.01,2013-02-03 12:15:00,
2013-02-03 07:20:00,57.6,54.8,30.18,NW,307,3.5,5.1,90,0.00,,---,0.00,VWS V13.01,2013-02-03 12:20:00,
2013-02-03 07:25:00,57.7,54.7,30.18,NW,304,3.5,4.9,90,0.00,,---,0.00,VWS V13.01,2013-02-03 12:25:00,
2013-02-03 07:30:00,57.9,54.5,30.18,WNW,290,4.1,4.2,88,0.00,,---,0.00,VWS V13.01,2013-02-03 12:30:00,
2013-02-03 07:35:00,57.9,54.2,30.18,NW,311,2.4,4.7,87,0.00,,---,0.00,VWS V13.01,2013-02-03 12:35:00,
2013-02-03 07:40:00,58.1,54.2,30.18,NNW,333,1.1,4.7,87,0.00,,---,0.00,VWS V13.01,2013-02-03 12:40:00,
2013-02-03 07:45:00,58.3,54.4,30.18,WNW,288,1.3,2.1,87,0.00,,---,0.00,VWS V13.01,2013-02-03 12:45:00,
2013-02-03 07:50:00,58.6,54.3,30.18,North,353,2.6,4.7,86,0.00,,---,0.00,VWS V13.01,2013-02-03 12:50:00,
2013-02-03 07:55:00,58.7,54.0,30.18,West,270,0.0,2.4,84,0.00,,---,0.00,VWS V13.01,2013-02-03 12:55:00,
2013-02-03 08:00:00,59.3,54.1,30.19,NNW,338,1.6,3.4,83,0.00,,---,0.00,VWS V13.01,2013-02-03 13:00:00,
2013-02-03 08:05:00,59.4,53.8,30.19,West,277,1.6,3.1,82,0.00,,---,0.00,VWS V13.01,2013-02-03 13:05:00,
2013-02-03 08:10:00,59.9,54.1,30.19,NNW,333,0.0,1.5,81,0.00,,---,0.00,VWS V13.01,2013-02-03 13:10:00,
2013-02-03 08:15:00,60.4,53.9,30.19,WNW,300,5.3,5.7,79,0.00,,---,0.00,VWS V13.01,2013-02-03 13:15:00,
2013-02-03 08:20:00,60.9,53.8,30.20,WNW,294,2.9,4.9,77,0.00,,---,0.00,VWS V13.01,2013-02-03 13:20:00,
2013-02-03 08:25:00,61.2,53.0,30.20,WNW,285,3.6,7.4,74,0.00,,---,0.00,VWS V13.01,2013-02-03 13:25:00,
2013-02-03 08:30:00,61.6,53.0,30.20,WNW,297,4.5,6.8,73,0.00,,---,0.00,VWS V13.01,2013-02-03 13:30:00,
2013-02-03 08:35:00,62.1,52.8,30.20,North,350,5.5,8.5,71,0.00,,---,0.00,VWS V13.01,2013-02-03 13:35:00,
2013-02-03 08:40:00,62.6,53.0,30.20,WNW,297,0.7,5.2,71,0.00,,---,0.00,VWS V13.01,2013-02-03 13:40:00,
2013-02-03 08:45:00,62.6,52.2,30.20,WNW,285,4.5,8.4,69,0.00,,---,0.00,VWS V13.01,2013-02-03 13:45:00,
2013-02-03 08:50:00,63.2,52.5,30.20,NNW,339,5.3,7.2,68,0.00,,---,0.00,VWS V13.01,2013-02-03 13:50:00,
2013-02-03 08:55:00,63.9,52.0,30.20,WNW,297,2.4,8.6,65,0.00,,---,0.00,VWS V13.01,2013-02-03 13:55:00,
2013-02-03 09:00:00,64.2,51.7,30.20,NW,316,3.0,6.0,64,0.00,,---,0.00,VWS V13.01,2013-02-03 14:00:00,
2013-02-03 09:05:00,64.2,51.6,30.21,NNW,335,4.3,9.1,64,0.00,,---,0.00,VWS V13.01,2013-02-03 14:05:00,
2013-02-03 09:10:00,64.3,51.4,30.20,North,356,1.5,8.4,63,0.00,,---,0.00,VWS V13.01,2013-02-03 14:10:00,
2013-02-03 09:15:00,64.9,51.6,30.21,West,259,5.7,6.0,62,0.00,,---,0.00,VWS V13.01,2013-02-03 14:15:00,
2013-02-03 09:20:00,65.1,50.8,30.21,NW,314,5.1,7.8,60,0.00,,---,0.00,VWS V13.01,2013-02-03 14:20:00,
2013-02-03 09:25:00,66.0,51.1,30.21,North,357,6.8,6.8,59,0.00,,---,0.00,VWS V13.01,2013-02-03 14:25:00,
2013-02-03 09:30:00,66.5,51.4,30.21,NNW,329,4.7,6.5,58,0.00,,---,0.00,VWS V13.01,2013-02-03 14:30:00,
2013-02-03 09:35:00,66.7,51.5,30.21,WNW,294,6.3,8.7,58,0.00,,---,0.00,VWS V13.01,2013-02-03 14:35:00,
2013-02-03 09:40:00,67.3,52.1,30.21,SW,235,0.9,4.6,58,0.00,,---,0.00,VWS V13.01,2013-02-03 14:40:00,
2013-02-03 09:45:00,67.5,51.7,30.21,NNW,330,6.7,7.2,57,0.00,,---,0.00,VWS V13.01,2013-02-03 14:45:00,
2013-02-03 09:50:00,67.7,51.7,30.21,NW,311,4.8,8.8,56,0.00,,---,0.00,VWS V13.01,2013-02-03 14:50:00,
2013-02-03 09:55:00,68.2,52.3,30.21,North,8,3.3,6.2,57,0.00,,---,0.00,VWS V13.01,2013-02-03 14:55:00,
2013-02-03 10:00:00,68.3,52.4,30.21,WNW,294,4.2,6.5,57,0.00,,---,0.00,VWS V13.01,2013-02-03 15:00:00,
2013-02-03 10:05:00,68.5,52.5,30.21,West,274,2.2,6.2,57,0.00,,---,0.00,VWS V13.01,2013-02-03 15:05:00,
2013-02-03 10:10:00,69.1,52.5,30.21,WSW,239,1.8,4.5,55,0.00,,---,0.00,VWS V13.01,2013-02-03 15:10:00,
2013-02-03 10:15:00,69.4,52.8,30.21,NW,307,7.3,8.7,56,0.00,,---,0.00,VWS V13.01,2013-02-03 15:15:00,
2013-02-03 10:20:00,69.4,52.6,30.21,NW,311,4.8,9.1,55,0.00,,---,0.00,VWS V13.01,2013-02-03 15:20:00,
2013-02-03 10:25:00,69.4,52.7,30.21,NW,326,2.9,7.8,55,0.00,,---,0.00,VWS V13.01,2013-02-03 15:25:00,
2013-02-03 10:30:00,69.5,52.7,30.20,WNW,300,7.9,9.6,55,0.00,,---,0.00,VWS V13.01,2013-02-03 15:30:00,
2013-02-03 10:35:00,69.4,53.0,30.20,WSW,242,2.8,7.1,56,0.00,,---,0.00,VWS V13.01,2013-02-03 15:35:00,
2013-02-03 10:40:00,68.9,52.7,30.20,WNW,301,6.2,8.5,56,0.00,,---,0.00,VWS V13.01,2013-02-03 15:40:00,
2013-02-03 10:45:00,69.4,53.2,30.20,NW,305,5.6,6.6,56,0.00,,---,0.00,VWS V13.01,2013-02-03 15:45:00,
2013-02-03 10:50:00,69.5,53.1,30.20,NW,316,4.7,8.3,56,0.00,,---,0.00,VWS V13.01,2013-02-03 15:50:00,
2013-02-03 10:55:00,69.9,53.8,30.19,NNW,333,1.9,6.4,56,0.00,,---,0.00,VWS V13.01,2013-02-03 15:55:00,
2013-02-03 11:00:00,70.5,53.9,30.19,NW,304,3.4,5.2,56,0.00,,---,0.00,VWS V13.01,2013-02-03 16:00:00,
2013-02-03 11:05:00,70.5,53.5,30.19,WNW,290,6.9,8.5,55,0.00,,---,0.00,VWS V13.01,2013-02-03 16:05:00,
2013-02-03 11:10:00,70.4,53.4,30.19,NNW,336,6.6,7.1,55,0.00,,---,0.00,VWS V13.01,2013-02-03 16:10:00,
2013-02-03 11:15:00,70.9,53.8,30.19,WNW,297,4.3,9.0,55,0.00,,---,0.00,VWS V13.01,2013-02-03 16:15:00,
2013-02-03 11:20:00,71.2,54.1,30.18,West,281,5.0,10.0,55,0.00,,---,0.00,VWS V13.01,2013-02-03 16:20:00,
2013-02-03 11:25:00,71.1,53.7,30.18,West,277,8.1,8.8,54,0.00,,---,0.00,VWS V13.01,2013-02-03 16:25:00,
2013-02-03 11:30:00,71.0,53.8,30.18,NNW,330,6.3,8.7,54,0.00,,---,0.00,VWS V13.01,2013-02-03 16:30:00,
2013-02-03 11:35:00,70.7,53.8,30.18,WSW,250,4.8,8.4,55,0.00,,---,0.00,VWS V13.01,2013-02-03 16:35:00,
2013-02-03 11:40:00,71.1,53.0,30.18,NW,309,4.2,7.4,53,0.00,,---,0.00,VWS V13.01,2013-02-03 16:40:00,
2013-02-03 11:45:00,71.5,54.0,30.17,NW,316,2.9,5.2,54,0.00,,---,0.00,VWS V13.01,2013-02-03 16:45:00,
2013-02-03 11:50:00,71.7,53.6,30.17,NW,322,4.7,7.1,53,0.00,,---,0.00,VWS V13.01,2013-02-03 16:50:00,
2013-02-03 11:55:00,72.1,53.2,30.17,NE,34,3.5,7.3,51,0.00,,---,0.00,VWS V13.01,2013-02-03 16:55:00,
2013-02-03 12:00:00,71.9,52.8,30.16,WNW,290,2.3,8.6,51,0.00,,---,0.00,VWS V13.01,2013-02-03 17:00:00,
2013-02-03 12:05:00,72.6,53.1,30.16,NW,326,2.2,7.9,50,0.00,,---,0.00,VWS V13.01,2013-02-03 17:05:00,
2013-02-03 12:10:00,72.2,52.4,30.16,NNW,342,6.7,7.0,50,0.00,,---,0.00,VWS V13.01,2013-02-03 17:10:00,
2013-02-03 12:15:00,72.7,51.8,30.15,North,10,3.9,6.8,48,0.00,,---,0.00,VWS V13.01,2013-02-03 17:15:00,
2013-02-03 12:20:00,72.6,51.5,30.15,NW,315,6.0,9.4,48,0.00,,---,0.00,VWS V13.01,2013-02-03 17:20:00,
2013-02-03 12:25:00,71.9,51.1,30.15,WNW,284,4.5,6.9,48,0.00,,---,0.00,VWS V13.01,2013-02-03 17:25:00,
2013-02-03 12:30:00,72.1,50.2,30.15,NW,311,3.8,6.5,46,0.00,,---,0.00,VWS V13.01,2013-02-03 17:30:00,
2013-02-03 12:35:00,72.1,49.5,30.14,West,264,3.9,7.3,45,0.00,,---,0.00,VWS V13.01,2013-02-03 17:35:00,
2013-02-03 12:40:00,72.2,50.3,30.14,NW,307,3.4,6.2,46,0.00,,---,0.00,VWS V13.01,2013-02-03 17:40:00,
2013-02-03 12:45:00,72.6,50.1,30.14,WNW,287,2.5,5.6,45,0.00,,---,0.00,VWS V13.01,2013-02-03 17:45:00,
2013-02-03 12:50:00,72.2,48.0,30.13,SW,219,6.1,8.0,42,0.00,,---,0.00,VWS V13.01,2013-02-03 17:50:00,
2013-02-03 12:55:00,72.6,47.8,30.13,NW,307,5.7,11.1,41,0.00,,---,0.00,VWS V13.01,2013-02-03 17:55:00,
2013-02-03 13:00:00,73.1,47.6,30.13,NNW,332,2.7,7.0,40,0.00,,---,0.00,VWS V13.01,2013-02-03 18:00:00,
2013-02-03 13:05:00,73.0,48.4,30.12,West,280,7.1,10.6,42,0.00,,---,0.00,VWS V13.01,2013-02-03 18:05:00,
2013-02-03 13:10:00,72.5,47.2,30.12,WNW,300,5.9,7.4,40,0.00,,---,0.00,VWS V13.01,2013-02-03 18:10:00,
2013-02-03 13:15:00,73.0,47.5,30.12,WNW,295,2.8,9.4,40,0.00,,---,0.00,VWS V13.01,2013-02-03 18:15:00,
2013-02-03 13:20:00,73.1,48.5,30.11,NNW,333,1.2,4.6,42,0.00,,---,0.00,VWS V13.01,2013-02-03 18:20:00,
2013-02-03 13:25:00,73.2,48.6,30.11,WNW,292,1.9,4.3,42,0.00,,---,0.00,VWS V13.01,2013-02-03 18:25:00,
2013-02-03 13:30:00,73.5,48.1,30.10,NNW,333,5.3,5.4,41,0.00,,---,0.00,VWS V13.01,2013-02-03 18:30:00,
2013-02-03 13:35:00,73.2,48.0,30.10,WNW,284,4.2,9.5,41,0.00,,---,0.00,VWS V13.01,2013-02-03 18:35:00,
2013-02-03 13:40:00,73.4,48.6,30.10,NNW,346,3.7,5.5,42,0.00,,---,0.00,VWS V13.01,2013-02-03 18:40:00,
2013-02-03 13:45:00,73.4,47.2,30.10,West,259,3.5,6.0,39,0.00,,---,0.00,VWS V13.01,2013-02-03 18:45:00,
2013-02-03 13:50:00,73.7,48.3,30.10,North,359,2.8,5.4,41,0.00,,---,0.00,VWS V13.01,2013-02-03 18:50:00,
2013-02-03 13:55:00,73.9,48.2,30.09,WNW,300,7.2,8.3,40,0.00,,---,0.00,VWS V13.01,2013-02-03 18:55:00,
2013-02-03 14:00:00,73.8,48.7,30.09,West,270,1.5,6.8,41,0.00,,---,0.00,VWS V13.01,2013-02-03 19:00:00,
2013-02-03 14:05:00,73.9,46.4,30.09,WNW,291,5.5,7.7,38,0.00,,---,0.00,VWS V13.01,2013-02-03 19:05:00,
2013-02-03 14:10:00,74.1,47.4,30.09,WSW,243,3.0,5.4,39,0.00,,---,0.00,VWS V13.01,2013-02-03 19:10:00,
2013-02-03 14:15:00,74.1,48.1,30.09,NNW,332,2.9,3.7,40,0.00,,---,0.00,VWS V13.01,2013-02-03 19:15:00,
2013-02-03 14:20:00,73.8,49.0,30.08,North,4,7.0,9.2,42,0.00,,---,0.00,VWS V13.01,2013-02-03 19:20:00,
2013-02-03 14:25:00,73.3,48.0,30.08,WNW,285,6.2,8.1,41,0.00,,---,0.00,VWS V13.01,2013-02-03 19:25:00,
2013-02-03 14:30:00,73.9,48.5,30.08,WNW,297,0.0,0.0,41,0.00,,---,0.00,VWS V13.01,2013-02-03 19:30:00,
2013-02-03 14:35:00,73.9,48.6,30.08,West,273,6.2,7.3,41,0.00,,---,0.00,VWS V13.01,2013-02-03 19:35:00,
2013-02-03 14:40:00,73.9,48.8,30.08,NW,323,0.9,5.0,41,0.00,,---,0.00,VWS V13.01,2013-02-03 19:40:00,
2013-02-03 14:45:00,74.0,51.1,30.08,WNW,295,0.0,5.0,45,0.00,,---,0.00,VWS V13.01,2013-02-03 19:45:00,
2013-02-03 14:50:00,74.0,52.9,30.08,NNW,329,1.2,6.6,48,0.00,,---,0.00,VWS V13.01,2013-02-03 19:50:00,
2013-02-03 14:55:00,73.8,51.8,30.08,North,4,2.2,6.0,46,0.00,,---,0.00,VWS V13.01,2013-02-03 19:55:00,
2013-02-03 15:00:00,74.0,52.7,30.08,NE,37,3.9,4.8,47,0.00,,---,0.00,VWS V13.01,2013-02-03 20:00:00,
2013-02-03 15:05:00,73.6,48.7,30.08,NW,316,3.2,6.8,41,0.00,,---,0.00,VWS V13.01,2013-02-03 20:05:00,
2013-02-03 15:10:00,73.7,48.2,30.08,NW,305,3.1,5.0,40,0.00,,---,0.00,VWS V13.01,2013-02-03 20:10:00,
2013-02-03 15:15:00,73.8,47.5,30.07,NW,314,1.8,4.3,39,0.00,,---,0.00,VWS V13.01,2013-02-03 20:15:00,
2013-02-03 15:20:00,73.4,44.0,30.08,NNW,340,5.3,7.1,35,0.00,,---,0.00,VWS V13.01,2013-02-03 20:20:00,
2013-02-03 15:25:00,73.8,47.0,30.08,NW,315,3.5,8.1,39,0.00,,---,0.00,VWS V13.01,2013-02-03 20:25:00,
2013-02-03 15:30:00,73.9,50.3,30.08,NE,52,7.4,7.4,44,0.00,,---,0.00,VWS V13.01,2013-02-03 20:30:00,
2013-02-03 15:35:00,73.4,49.5,30.07,East,96,1.2,4.1,43,0.00,,---,0.00,VWS V13.01,2013-02-03 20:35:00,
2013-02-03 15:40:00,73.6,45.9,30.08,NW,318,0.6,5.7,37,0.00,,---,0.00,VWS V13.01,2013-02-03 20:40:00,
2013-02-03 15:45:00,73.7,43.6,30.08,North,353,6.0,6.6,34,0.00,,---,0.00,VWS V13.01,2013-02-03 20:45:00,
2013-02-03 15:50:00,74.0,44.2,30.07,NW,315,6.3,6.4,34,0.00,,---,0.00,VWS V13.01,2013-02-03 20:50:00,
2013-02-03 15:55:00,73.8,49.0,30.07,NNW,345,3.6,7.2,42,0.00,,---,0.00,VWS V13.01,2013-02-03 20:55:00,
2013-02-03 16:00:00,73.6,49.3,30.07,NNW,338,3.0,7.0,42,0.00,,---,0.00,VWS V13.01,2013-02-03 21:00:00,
2013-02-03 16:05:00,73.5,49.8,30.07,NE,34,3.4,5.9,43,0.00,,---,0.00,VWS V13.01,2013-02-03 21:05:00,
2013-02-03 16:10:00,72.7,47.3,30.07,North,11,1.4,8.0,40,0.00,,---,0.00,VWS V13.01,2013-02-03 21:10:00,
2013-02-03 16:15:00,72.1,49.0,30.07,North,7,9.4,9.6,44,0.00,,---,0.00,VWS V13.01,2013-02-03 21:15:00,
2013-02-03 16:20:00,71.9,49.4,30.07,NNW,333,6.1,8.5,45,0.00,,---,0.00,VWS V13.01,2013-02-03 21:20:00,
2013-02-03 16:25:00,71.7,48.7,30.07,NNW,338,4.2,4.4,44,0.00,,---,0.00,VWS V13.01,2013-02-03 21:25:00,
2013-02-03 16:30:00,71.6,50.0,30.08,NNE,31,7.1,8.8,46,0.00,,---,0.00,VWS V13.01,2013-02-03 21:30:00,
2013-02-03 16:35:00,71.4,48.4,30.08,NE,35,3.9,8.2,44,0.00,,---,0.00,VWS V13.01,2013-02-03 21:35:00,
2013-02-03 16:40:00,71.3,49.7,30.08,NE,38,7.2,7.2,46,0.00,,---,0.00,VWS V13.01,2013-02-03 21:40:00,
2013-02-03 16:45:00,71.3,49.3,30.08,NNE,24,5.6,9.4,46,0.00,,---,0.00,VWS V13.01,2013-02-03 21:45:00,
2013-02-03 16:50:00,70.9,48.8,30.08,North,4,4.7,9.1,45,0.00,,---,0.00,VWS V13.01,2013-02-03 21:50:00,
2013-02-03 16:55:00,70.6,49.3,30.08,NNW,335,2.9,5.3,47,0.00,,---,0.00,VWS V13.01,2013-02-03 21:55:00,
2013-02-03 17:00:00,70.6,49.5,30.08,NE,39,3.5,9.1,47,0.00,,---,0.00,VWS V13.01,2013-02-03 22:00:00,
2013-02-03 17:05:00,70.4,48.7,30.08,NNE,13,2.0,5.5,46,0.00,,---,0.00,VWS V13.01,2013-02-03 22:05:00,
2013-02-03 17:10:00,70.1,48.8,30.08,NNE,30,4.8,7.4,47,0.00,,---,0.00,VWS V13.01,2013-02-03 22:10:00,
2013-02-03 17:15:00,69.7,48.7,30.08,North,356,5.3,6.5,47,0.00,,---,0.00,VWS V13.01,2013-02-03 22:15:00,
2013-02-03 17:20:00,69.5,48.7,30.08,NNW,347,6.8,8.0,48,0.00,,---,0.00,VWS V13.01,2013-02-03 22:20:00,
2013-02-03 17:25:00,69.4,48.8,30.09,North,356,6.9,8.5,48,0.00,,---,0.00,VWS V13.01,2013-02-03 22:25:00,
2013-02-03 17:30:00,69.4,48.4,30.09,NW,323,4.3,9.8,47,0.00,,---,0.00,VWS V13.01,2013-02-03 22:30:00,
2013-02-03 17:35:00,69.1,48.5,30.09,NNE,14,0.6,7.6,48,0.00,,---,0.00,VWS V13.01,2013-02-03 22:35:00,
2013-02-03 17:40:00,69.0,48.3,30.09,North,3,5.5,7.4,48,0.00,,---,0.00,VWS V13.01,2013-02-03 22:40:00,
2013-02-03 17:45:00,69.0,47.7,30.09,NNE,20,1.1,4.2,47,0.00,,---,0.00,VWS V13.01,2013-02-03 22:45:00,
2013-02-03 17:50:00,68.4,47.0,30.09,NW,322,2.1,4.8,46,0.00,,---,0.00,VWS V13.01,2013-02-03 22:50:00,
2013-02-03 17:55:00,68.4,47.3,30.09,NW,312,0.0,3.1,47,0.00,,---,0.00,VWS V13.01,2013-02-03 22:55:00,
2013-02-03 18:00:00,68.3,47.4,30.09,NNW,343,0.0,1.1,47,0.00,,---,0.00,VWS V13.01,2013-02-03 23:00:00,
2013-02-03 18:05:00,68.2,47.7,30.09,NNE,28,0.0,4.7,48,0.00,,---,0.00,VWS V13.01,2013-02-03 23:05:00,
2013-02-03 18:10:00,67.9,47.6,30.10,North,0,1.5,3.5,48,0.00,,---,0.00,VWS V13.01,2013-02-03 23:10:00,
2013-02-03 18:15:00,67.5,47.5,30.09,NW,312,0.0,0.0,49,0.00,,---,0.00,VWS V13.01,2013-02-03 23:15:00,
2013-02-03 18:20:00,67.3,47.5,30.09,NW,312,0.0,0.0,49,0.00,,---,0.00,VWS V13.01,2013-02-03 23:20:00,
2013-02-03 18:25:00,67.1,47.5,30.09,NW,312,0.0,0.0,49,0.00,,---,0.00,VWS V13.01,2013-02-03 23:25:00,
2013-02-03 18:30:00,66.7,47.3,30.09,NW,312,0.0,0.0,50,0.00,,---,0.00,VWS V13.01,2013-02-03 23:30:00,
2013-02-03 18:35:00,66.1,46.9,30.10,NW,312,0.0,0.0,50,0.00,,---,0.00,VWS V13.01,2013-02-03 23:35:00,
2013-02-03 18:40:00,65.7,46.9,30.10,NW,312,0.0,0.0,51,0.00,,---,0.00,VWS V13.01,2013-02-03 23:40:00,
2013-02-03 18:45:00,65.4,46.9,30.10,NW,312,0.0,0.0,51,0.00,,---,0.00,VWS V13.01,2013-02-03 23:45:00,
2013-02-03 18:50:00,65.2,46.5,30.10,NW,312,0.0,0.0,51,0.00,,---,0.00,VWS V13.01,2013-02-03 23:50:00,
2013-02-03 18:55:00,64.9,46.3,30.10,NW,312,0.0,0.0,51,0.00,,---,0.00,VWS V13.01,2013-02-03 23:55:00,
2013-02-03 19:00:00,64.8,46.4,30.10,NW,312,0.0,0.0,51,0.00,,---,0.00,VWS V13.01,2013-02-04 00:00:00,
2013-02-03 19:05:00,64.3,46.2,30.10,NW,312,0.0,0.0,52,0.00,,---,0.00,VWS V13.01,2013-02-04 00:05:00,
2013-02-03 19:10:00,64.1,46.4,30.10,NW,312,0.0,0.0,52,0.00,,---,0.00,VWS V13.01,2013-02-04 00:10:00,
2013-02-03 19:15:00,63.8,46.5,30.10,NW,312,0.0,0.0,53,0.00,,---,0.00,VWS V13.01,2013-02-04 00:15:00,
2013-02-03 19:20:00,63.4,46.3,30.10,NW,312,0.0,0.0,54,0.00,,---,0.00,VWS V13.01,2013-02-04 00:20:00,
2013-02-03 19:25:00,63.0,46.1,30.10,NW,312,0.0,0.0,54,0.00,,---,0.00,VWS V13.01,2013-02-04 00:25:00,
2013-02-03 19:30:00,62.7,46.0,30.10,NW,312,0.0,0.0,54,0.00,,---,0.00,VWS V13.01,2013-02-04 00:30:00,
2013-02-03 19:35:00,62.5,46.0,30.11,NW,312,0.0,0.0,55,0.00,,---,0.00,VWS V13.01,2013-02-04 00:35:00,
2013-02-03 19:40:00,62.1,45.9,30.11,NW,312,0.0,0.0,55,0.00,,---,0.00,VWS V13.01,2013-02-04 00:40:00,
2013-02-03 19:45:00,61.7,45.9,30.11,NW,312,0.0,0.0,56,0.00,,---,0.00,VWS V13.01,2013-02-04 00:45:00,
2013-02-03 19:50:00,61.6,46.6,30.12,NW,312,0.0,0.0,58,0.00,,---,0.00,VWS V13.01,2013-02-04 00:50:00,
2013-02-03 19:55:00,61.5,46.2,30.12,NW,312,0.0,0.0,57,0.00,,---,0.00,VWS V13.01,2013-02-04 00:55:00,
2013-02-03 20:00:00,61.6,46.1,30.12,NW,312,0.0,0.0,57,0.00,,---,0.00,VWS V13.01,2013-02-04 01:00:00,
2013-02-03 20:05:00,61.8,46.1,30.12,NW,312,0.0,0.0,56,0.00,,---,0.00,VWS V13.01,2013-02-04 01:05:00,
2013-02-03 20:10:00,62.2,46.7,30.12,NW,312,0.0,0.0,57,0.00,,---,0.00,VWS V13.01,2013-02-04 01:10:00,
2013-02-03 20:15:00,61.9,46.6,30.12,NW,312,0.0,0.0,57,0.00,,---,0.00,VWS V13.01,2013-02-04 01:15:00,
2013-02-03 20:20:00,61.9,46.9,30.12,NW,321,2.0,3.0,58,0.00,,---,0.00,VWS V13.01,2013-02-04 01:20:00,
2013-02-03 20:25:00,61.7,46.6,30.12,WNW,284,0.0,2.7,58,0.00,,---,0.00,VWS V13.01,2013-02-04 01:25:00,
2013-02-03 20:30:00,61.5,46.4,30.12,WNW,284,0.0,0.0,58,0.00,,---,0.00,VWS V13.01,2013-02-04 01:30:00,
2013-02-03 20:35:00,61.6,46.3,30.13,WNW,284,0.0,0.0,57,0.00,,---,0.00,VWS V13.01,2013-02-04 01:35:00,
2013-02-03 20:40:00,61.5,46.2,30.13,WNW,284,0.0,0.0,57,0.00,,---,0.00,VWS V13.01,2013-02-04 01:40:00,
2013-02-03 20:45:00,61.5,46.1,30.13,SW,232,0.0,0.0,57,0.00,,---,0.00,VWS V13.01,2013-02-04 01:45:00,
2013-02-03 20:50:00,61.7,46.1,30.13,SW,219,0.0,0.7,56,0.00,,---,0.00,VWS V13.01,2013-02-04 01:50:00,
2013-02-03 20:55:00,61.6,46.2,30.13,WSW,240,0.0,0.0,57,0.00,,---,0.00,VWS V13.01,2013-02-04 01:55:00,
2013-02-03 21:00:00,61.4,46.5,30.13,WSW,240,0.0,0.0,58,0.00,,---,0.00,VWS V13.01,2013-02-04 02:00:00,
2013-02-03 21:05:00,60.9,46.0,30.13,NW,316,0.0,1.2,58,0.00,,---,0.00,VWS V13.01,2013-02-04 02:05:00,
2013-02-03 21:10:00,60.9,45.7,30.13,West,266,0.0,0.0,57,0.00,,---,0.00,VWS V13.01,2013-02-04 02:10:00,
2013-02-03 21:15:00,60.7,45.4,30.13,West,266,0.0,0.0,57,0.00,,---,0.00,VWS V13.01,2013-02-04 02:15:00,
2013-02-03 21:20:00,60.6,45.2,30.13,West,266,0.0,0.0,57,0.00,,---,0.00,VWS V13.01,2013-02-04 02:20:00,
2013-02-03 21:25:00,60.7,45.2,30.13,West,266,0.0,0.0,56,0.00,,---,0.00,VWS V13.01,2013-02-04 02:25:00,
2013-02-03 21:30:00,60.5,45.1,30.13,West,266,0.0,0.0,57,0.00,,---,0.00,VWS V13.01,2013-02-04 02:30:00,
2013-02-03 21:35:00,60.3,45.2,30.13,West,266,0.0,0.0,57,0.00,,---,0.00,VWS V13.01,2013-02-04 02:35:00,
2013-02-03 21:40:00,60.1,45.4,30.13,West,266,0.0,0.0,58,0.00,,---,0.00,VWS V13.01,2013-02-04 02:40:00,
2013-02-03 21:45:00,59.5,45.0,30.13,West,266,0.0,0.0,59,0.00,,---,0.00,VWS V13.01,2013-02-04 02:45:00,
2013-02-03 21:50:00,59.3,45.0,30.13,West,266,0.0,0.0,59,0.00,,---,0.00,VWS V13.01,2013-02-04 02:50:00,
2013-02-03 21:55:00,59.3,45.1,30.13,West,266,0.0,0.0,59,0.00,,---,0.00,VWS V13.01,2013-02-04 02:55:00,
2013-02-03 22:00:00,59.0,45.2,30.14,West,266,0.0,0.0,60,0.00,,---,0.00,VWS V13.01,2013-02-04 03:00:00,
2013-02-03 22:05:00,58.5,45.0,30.14,West,266,0.0,0.0,61,0.00,,---,0.00,VWS V13.01,2013-02-04 03:05:00,
2013-02-03 22:10:00,58.1,45.1,30.14,West,266,0.0,0.0,62,0.00,,---,0.00,VWS V13.01,2013-02-04 03:10:00,
2013-02-03 22:15:00,57.8,45.5,30.14,West,266,0.0,0.0,63,0.00,,---,0.00,VWS V13.01,2013-02-04 03:15:00,
2013-02-03 22:20:00,57.6,45.4,30.14,West,266,0.0,0.0,64,0.00,,---,0.00,VWS V13.01,2013-02-04 03:20:00,
2013-02-03 22:25:00,57.6,45.6,30.14,West,266,0.0,0.0,64,0.00,,---,0.00,VWS V13.01,2013-02-04 03:25:00,
2013-02-03 22:30:00,57.2,45.3,30.14,West,266,0.0,0.0,64,0.00,,---,0.00,VWS V13.01,2013-02-04 03:30:00,
2013-02-03 22:35:00,57.0,45.2,30.14,West,266,0.0,0.0,65,0.00,,---,0.00,VWS V13.01,2013-02-04 03:35:00,
2013-02-03 22:40:00,56.7,45.1,30.14,West,266,0.0,0.0,65,0.00,,---,0.00,VWS V13.01,2013-02-04 03:40:00,
2013-02-03 22:45:00,56.8,45.5,30.14,West,266,0.0,0.0,66,0.00,,---,0.00,VWS V13.01,2013-02-04 03:45:00,
2013-02-03 22:50:00,56.9,45.6,30.14,West,266,0.0,0.0,66,0.00,,---,0.00,VWS V13.01,2013-02-04 03:50:00,
2013-02-03 22:55:00,56.7,45.7,30.15,West,266,0.0,0.0,66,0.00,,---,0.00,VWS V13.01,2013-02-04 03:55:00,
2013-02-03 23:00:00,56.5,45.6,30.15,West,266,0.0,0.0,67,0.00,,---,0.00,VWS V13.01,2013-02-04 04:00:00,
2013-02-03 23:05:00,56.2,45.5,30.15,West,266,0.0,0.0,67,0.00,,---,0.00,VWS V13.01,2013-02-04 04:05:00,
2013-02-03 23:10:00,55.9,45.6,30.14,West,266,0.0,0.0,68,0.00,,---,0.00,VWS V13.01,2013-02-04 04:10:00,
2013-02-03 23:15:00,55.7,45.8,30.15,West,266,0.0,0.0,69,0.00,,---,0.00,VWS V13.01,2013-02-04 04:15:00,
2013-02-03 23:20:00,55.4,45.7,30.15,West,266,0.0,0.0,70,0.00,,---,0.00,VWS V13.01,2013-02-04 04:20:00,
2013-02-03 23:25:00,55.1,45.8,30.14,West,266,0.0,0.0,71,0.00,,---,0.00,VWS V13.01,2013-02-04 04:25:00,
2013-02-03 23:30:00,55.1,45.8,30.15,West,266,0.0,0.0,71,0.00,,---,0.00,VWS V13.01,2013-02-04 04:30:00,
2013-02-03 23:35:00,55.3,46.0,30.15,West,266,0.0,0.0,71,0.00,,---,0.00,VWS V13.01,2013-02-04 04:35:00,
2013-02-03 23:40:00,55.4,46.1,30.15,West,266,0.0,0.0,71,0.00,,---,0.00,VWS V13.01,2013-02-04 04:40:00,
2013-02-03 23:45:00,55.5,46.2,30.14,West,266,0.0,0.0,71,0.00,,---,0.00,VWS V13.01,2013-02-04 04:45:00,
2013-02-03 23:50:00,55.7,46.4,30.14,West,266,0.0,0.0,71,0.00,,---,0.00,VWS V13.01,2013-02-04 04:50:00,
2013-02-03 23:55:00,55.6,46.3,30.14,West,266,0.0,0.0,71,0.00,,---,0.00,VWS V13.01,2013-02-04 04:55:00,